Las Vegas, Nevada (DRI) Weather observations

Data are for observation ending at time listed.
 Day   Time    Ave.   Ave.  Ave.  Vector   Max.   Stn.    Total    Solar   Ave.  
  of    of     Air    Rel.  Wind   Wind    Wind   Baro.  Precip.   Rad.    Soil  
Year   Day     Temp.  Hum.  Speed  Dir.    Gust   Pres.                    Temp. 
2015   (PST)    F      %     mph   deg.    mph     mb.     in.     W/m2     F   
------------------------------------------------------------------------------
 211   15:30  107.3    13    1.8   180      5.4   941.7    0.00     688    98.3
 211   15:40  107.2    13    2.1   189      5.3   941.7    0.00     672    98.5
 211   15:50  105.1    13    1.4    66      4.4   941.6    0.00     294    98.7
 211   16:00  105.4    12    1.1   175      4.5   941.7    0.00     357    98.9
 211   16:10  105.7    12    1.1    42      5.6   941.6    0.00     264    99.0
 211   16:20  105.9    13    1.7   186      5.9   941.6    0.00     335    99.2
 211   16:30  105.3    13    1.8   192      5.0   941.5    0.00     437    99.5
 211   16:40  106.4    12    1.7   199      5.7   941.5    0.00     315    99.7
 211   16:50  104.9    13    1.7   180      6.2   941.5    0.00     183    99.9
 211   17:00  104.5    13    1.5   168      4.4   941.5    0.00     311    100.1
 211   17:10  105.4    12    1.3   186      4.2   941.5    0.00     307    100.3
 211   17:20  105.8    12    1.4   188      6.9   941.4    0.00     253    100.4
 211   17:30  101.5    20    5.5   173     17.0   941.5    0.00     213    100.6
 211   17:40   98.9    21    9.2   172     21.0   941.6    0.00     206    100.7
 211   17:50   97.4    22   10.9   173     21.0   941.8    0.00     138    100.8
 211   18:00   96.6    23   12.4   173     21.3   942.0    0.00      85    101.0
 211   18:10   96.0    23   10.3   175     17.2   942.3    0.00      47    101.1
 211   18:20   96.0    24   10.4   175     20.6   942.7    0.00      33    101.2
 211   18:30   95.3    25   12.3   176     24.5   943.3    0.00      18    101.2
 211   18:40   94.4    26    6.2   169     17.5   943.8    0.00      11    101.3
 211   18:50   94.5    26    3.3    92     10.5   944.3    0.00       7    101.3
 211   19:00   94.1    27    2.1   345      6.1   944.7    0.00       2    101.4
 211   19:10   93.7    27    2.5    15      5.3   944.9    0.00       0    101.4
 211   19:20   93.1    28    2.7   151     14.0   945.1    0.00       0    101.5
 211   19:30   92.4    28    4.0   174     15.0   945.0    0.00       1    101.5
 211   19:40   92.4    28    9.3   175     16.1   944.5    0.00       0    101.5
 211   19:50   92.8    27    5.9   172     13.2   944.8    0.00       1    101.5
 211   20:00   93.0    27    2.6   182      8.8   945.2    0.00       0    101.5
 211   20:10   92.7    27    6.5   178     12.8   945.2    0.00       2    101.4
 211   20:20   92.4    27    8.3   175     14.9   945.2    0.00       2    101.4
 211   20:30   92.2    27    9.7   176     16.4   945.2    0.00       0    101.4
 211   20:40   92.2    27    6.9   179     15.7   945.2    0.00       0    101.3
 211   20:50   92.3    27    6.1   185     12.7   945.3    0.00       0    101.2
 211   21:00   92.2    27    6.4   184     14.2   945.3    0.00       2    101.2
 211   21:10   92.2    27    4.4   196      9.1   945.2    0.00       1    101.1
 211   21:20   92.2    26    3.3   199      7.2   945.2    0.00       2    101.0
 211   21:30   92.2    26    3.6   208      7.4   945.1    0.00       2    101.0
 211   21:40   92.2    26    4.2   206      9.6   945.0    0.00       2    100.9
 211   21:50   92.2    26    4.7   197      9.9   944.9    0.00       2    100.8
 211   22:00   92.1    26    5.0   203     11.0   944.9    0.00       2    100.7
 211   22:10   92.4    25    4.4   205      9.3   944.8    0.00       2    100.7
 211   22:20   92.3    26    5.0   201      9.5   944.7    0.00       1    100.6
 211   22:30   92.3    26    4.6   206     11.1   944.5    0.00       1    100.5
 211   22:40   92.4    26    3.5   221      7.7   944.1    0.00       2    100.5
 211   22:50   92.6    25    3.5   224     10.2   944.0    0.00       1    100.4
 211   23:00   92.8    25    3.1   207      6.9   944.1    0.00       1    100.3
 211   23:10   92.8    25    1.8   198      9.3   944.0    0.00       1    100.2
 211   23:20   93.2    24    1.6   288      5.4   943.9    0.00       0    100.1
 211   23:30   93.6    23    3.4   223      7.7   943.5    0.00       1    100.1
 211   23:40   93.8    22    1.9   244      6.2   943.2    0.00       1    100.0
 211   23:50   94.1    21    1.7   280      6.4   943.2    0.00       1    99.9
 212    0:00   94.3    21    1.0   347      3.1   943.1    0.00       2    99.8
 212    0:10   93.6    22    0.2    66      1.6   943.3    0.00       0    99.7
 212    0:20   92.9    24    0.7    60      2.9   943.5    0.00       1    99.6
 212    0:30   92.1    26    0.6    51      2.2   943.5    0.00       2    99.6
 212    0:40   91.8    27    0.3   133      2.5   943.4    0.00       0    99.5
 212    0:50   90.5    28    0.8   195      3.4   943.4    0.00       1    99.4
 212    1:00   90.0    29    0.1   192      1.4   943.5    0.00       1    99.3
 212    1:10   90.1    29    0.2   195      1.2   943.5    0.00       1    99.3
 212    1:20   90.3    29    0.0   186      0.7   943.5    0.00       1    99.2
 212    1:30   90.2    29    0.1   200      1.6   943.5    0.00       1    99.1
 212    1:40   90.3    29    0.0     0      0.0   943.5    0.00       1    99.0
 212    1:50   89.9    29    0.1   168      1.8   943.6    0.00       1    99.0
 212    2:00   89.9    28    0.1    61      1.6   943.6    0.00       2    98.9
 212    2:10   89.7    29    0.0   152      0.7   943.7    0.00       1    98.8
 212    2:20   89.3    30    0.0   152      0.7   943.7    0.00       1    98.7
 212    2:30   89.0    30    0.0     0      0.0   943.7    0.00       1    98.7
 212    2:40   88.7    32    0.5   159      1.8   943.7    0.00       1    98.6
 212    2:50   88.5    32    0.2   170      1.5   943.7    0.00       2    98.5
 212    3:00   88.7    31    0.0     0      0.0   943.8    0.00       2    98.5
 212    3:10   89.1    30    0.3   184      2.5   943.8    0.00       2    98.4
 212    3:20   89.2    30    0.4   189      1.9   943.8    0.00       1    98.3
 212    3:30   89.1    30    0.3   199      2.0   943.8    0.00       1    98.2
 212    3:40   89.2    28    0.0     0      0.0   943.9    0.00       1    98.2
 212    3:50   89.8    27    0.0    55      1.4   944.0    0.00       2    98.1
 212    4:00   89.9    27    0.0    52      1.6   944.1    0.00       1    98.0
 212    4:10   89.5    28    0.0    62      0.7   944.2    0.00       2    98.0
 212    4:20   88.8    30    0.0    73      0.3   944.2    0.00       2    97.9
 212    4:30   88.3    30    0.0     0      0.0   944.2    0.00       2    97.8
 212    4:40   87.5    32    0.0     0      0.0   944.3    0.00       3    97.8
 212    4:50   87.3    32    0.0     0      0.0   944.4    0.00       3    97.7
 212    5:00   87.4    31    0.0     0      0.0   944.5    0.00       3    97.6
 212    5:10   87.3    31    0.0     0      0.0   944.6    0.00      11    97.6
 212    5:20   87.0    33    0.0     0      0.0   944.7    0.00      20    97.5
 212    5:30   87.3    32    0.1   237      2.3   944.8    0.00      28    97.4
 212    5:40   88.7    30    0.1   337      2.9   945.0    0.00      34    97.3
 212    5:50   88.8    31    0.0     0      0.0   945.1    0.00      43    97.2
 212    6:00   89.2    31    0.0     0      0.0   945.1    0.00      55    97.2
 212    6:10   89.7    29    0.0    46      1.0   945.2    0.00      71    97.1
 212    6:20   90.5    29    0.0    36      0.9   945.3    0.00      75    97.0
 212    6:30   90.5    28    0.1   209      1.8   945.3    0.00      61    96.9
 212    6:40   90.9    28    0.0    54      0.9   945.3    0.00      90    96.9
 212    6:50   91.2    28    0.1   122      1.9   945.3    0.00     149    96.8
 212    7:00   91.7    27    1.5    13      3.7   945.3    0.00     126    96.7
 212    7:10   91.9    27    1.3    25      5.4   945.3    0.00     157    96.6
 212    7:20   92.0    27    0.6    48      3.1   945.3    0.00     180    96.6
 212    7:30   92.7    26    0.5    51      2.7   945.3    0.00     140    96.5
 212    7:40   92.8    26    0.7    47      3.7   945.3    0.00      76    96.4
 212    7:50   92.9    26    0.9    54      4.2   945.2    0.00     107    96.4
 212    8:00   93.1    26    0.5    34      2.8   945.3    0.00     184    96.3
 212    8:10   93.8    25    0.5   143      2.3   945.4    0.00     377    96.3
 212    8:20   94.2    25    1.2    44      4.8   945.3    0.00     492    96.3
 212    8:30   95.0    24    1.6    37      5.3   945.3    0.00     399    96.2
 212    8:40   94.4    24    1.5    43      3.9   945.2    0.00     598    96.2
 212    8:50   94.8    25    1.3   128      4.5   945.2    0.00     700    96.2
 212    9:00   95.1    24    1.3    25      4.7   945.2    0.00     690    96.1
 212    9:10   95.7    24    1.5    40      4.7   945.2    0.00     799    96.1
 212    9:20   96.1    24    1.3    32      4.2   945.2    0.00     822    96.1
 212    9:30   96.9    23    1.4    44      4.7   945.1    0.00     846    96.0
 212    9:40   97.3    23    1.8   112      5.0   945.1    0.00     868    96.0
 212    9:50   98.5    22    1.3    45      4.7   945.1    0.00     888    96.0
 212   10:00   97.5    22    2.1    38      5.3   945.1    0.00     908    96.0
 212   10:10   97.8    21    2.0    41      5.8   945.1    0.00     926    96.0
 212   10:20   99.0    20    1.1    36      4.6   945.0    0.00     941    96.0
 212   10:30  100.2    19    1.4    19      3.7   944.8    0.00     956    96.0
 212   10:40   99.7    19    1.6     4      5.0   944.8    0.00     967    95.9
 212   10:50  100.1    20    1.5    24      5.0   944.5    0.00     979    95.8
 212   11:00  100.3    20    1.9    94      5.1   944.4    0.00     989    95.9
 212   11:10  100.5    19    1.4    46      6.6   944.3    0.00     997    95.9
 212   11:20  101.3    19    1.5   216      5.9   944.2    0.00    1002    96.0
 212   11:30  100.9    19    1.9   154      6.6   944.2    0.00    1006    96.0
 212   11:40  100.3    20    2.4    25      7.1   944.1    0.00    1011    96.1
 212   11:50  102.0    19    1.8   180      5.9   944.0    0.00    1013    96.3
 212   12:00  103.2    18    1.3   159      7.5   943.9    0.00    1015    96.4
 212   12:10  101.7    19    2.3     4      5.3   943.7    0.00    1013    96.5
 212   12:20  102.0    19    0.9    99      3.6   943.5    0.00    1007    96.8
 212   12:30  102.7    18    2.1    20      6.2   943.4    0.00    1000    97.0
 212   12:40  102.7    18    1.5   143      3.5   943.2    0.00     996    97.2
 212   12:50  104.1    18    2.1   253      8.3   943.1    0.00     987    97.4
 212   13:00  103.8    17    2.3   206      5.0   943.0    0.00     967    97.6
 212   13:10  104.2    17    3.1   336      7.1   942.8    0.00     954    97.8
 212   13:20  103.2    18    2.4    13      7.0   942.7    0.00     931    98.0
 212   13:30  103.4    18    2.7    19      7.9   942.5    0.00     924    98.2
 212   13:40  102.8    18    2.9    15      6.4   942.3    0.00     909    98.5
 212   13:50  103.7    17    1.7   308      6.5   942.1    0.00     894    98.7
 212   14:00  104.3    17    1.8    30      4.7   942.0    0.00     874    98.9
 212   14:10  104.1    16    3.5   355      7.2   941.8    0.00     856    99.2
 212   14:20  104.3    16    2.6   263      6.6   941.6    0.00     828    99.4
 212   14:30  105.6    16    3.4   336      7.0   941.4    0.00     798    99.7
 212   14:40  105.1    16    2.4   344      6.5   941.3    0.00     814    99.8
 212   14:50  105.0    16    3.1    22      7.5   941.1    0.00     765    100.1
 212   15:00  104.2    17    4.3   346      9.7   941.1    0.00     241    100.4
 212   15:10  103.0    18    5.4   360     11.6   940.9    0.00     626    100.6
 212   15:20  103.9    18    6.2     2     11.5   940.9    0.00     674    100.9

Return to Las Vegas, Nevada graphs page.


Western Regional Climate Center,wrcc@dri.edu